JBU1438 KMCO-KBDL
Flight info
| Callsign | JBU1438 |
|---|---|
| Flight time | 2h 23m |
| Altitude | 37000 |
| Route | FATHE4 VIYAP Q87 GEARS BBOBO Q22 RBV Q419 DPK DPK3 |
| Aircraft | A321/M-SDE3FGHIRWY/LB1 |
Departure
| Time | 2026-04-21 20:34 |
|---|---|
| Airport | Orlando International Airport (KMCO) |
Arrival
| Time | 2026-04-21 22:58 |
|---|---|
| Airport | Bradley International Airport (KBDL) |
| Time | Latitude | Longitude | Altitude | Speed | Heading |
|---|---|---|---|---|---|
| 2026-04-21 20:21 | 28.41598 | -81.31440 | 100 ft | 0 kts | 110° |
| 2026-04-21 20:27 | 28.41602 | -81.31453 | 102 ft | 4 kts | 110° |
| 2026-04-21 20:27 | 28.41610 | -81.31476 | 101 ft | 4 kts | 104° |
| 2026-04-21 20:27 | 28.41610 | -81.31504 | 100 ft | 4 kts | 58° |
| 2026-04-21 20:28 | 28.41591 | -81.31522 | 102 ft | 4 kts | 12° |
| 2026-04-21 20:28 | 28.41566 | -81.31525 | 100 ft | 4 kts | 5° |
| 2026-04-21 20:28 | 28.41560 | -81.31526 | 100 ft | 1 kts | 5° |
| 2026-04-21 20:31 | 28.41571 | -81.31525 | 100 ft | 3 kts | 2° |
| 2026-04-21 20:31 | 28.41600 | -81.31533 | 100 ft | 5 kts | 329° |
| 2026-04-21 20:32 | 28.41634 | -81.31572 | 100 ft | 9 kts | 298° |
| 2026-04-21 20:32 | 28.41660 | -81.31650 | 103 ft | 13 kts | 281° |
| 2026-04-21 20:32 | 28.41694 | -81.31755 | 103 ft | 16 kts | 302° |
| 2026-04-21 20:32 | 28.41755 | -81.31858 | 103 ft | 18 kts | 277° |
| 2026-04-21 20:33 | 28.41692 | -81.31973 | 103 ft | 21 kts | 192° |
| 2026-04-21 20:33 | 28.41552 | -81.32014 | 103 ft | 21 kts | 228° |
| 2026-04-21 20:33 | 28.41559 | -81.32175 | 103 ft | 22 kts | 317° |
| 2026-04-21 20:33 | 28.41716 | -81.32199 | 102 ft | 29 kts | 359° |
| 2026-04-21 20:34 | 28.42137 | -81.32201 | 105 ft | 91 kts | 359° |
| 2026-04-21 20:34 | 28.42956 | -81.32212 | 104 ft | 143 kts | 359° |
| 2026-04-21 20:34 | 28.44089 | -81.32238 | 261 ft | 172 kts | 3° |
| 2026-04-21 20:34 | 28.45286 | -81.32302 | 1012 ft | 173 kts | 4° |
| 2026-04-21 20:35 | 28.46487 | -81.32354 | 1720 ft | 174 kts | 5° |
| 2026-04-21 20:35 | 28.47710 | -81.32356 | 2298 ft | 181 kts | 8° |
| 2026-04-21 20:35 | 28.49007 | -81.32327 | 2680 ft | 196 kts | 7° |
| 2026-04-21 20:35 | 28.50431 | -81.32313 | 3044 ft | 214 kts | 5° |
| 2026-04-21 20:36 | 28.51979 | -81.32312 | 3508 ft | 230 kts | 5° |
| 2026-04-21 20:36 | 28.53619 | -81.32327 | 4045 ft | 240 kts | 3° |
| 2026-04-21 20:36 | 28.55300 | -81.32304 | 4738 ft | 244 kts | 7° |
| 2026-04-21 20:36 | 28.57031 | -81.32163 | 5280 ft | 255 kts | 8° |
| 2026-04-21 20:37 | 28.58841 | -81.31994 | 5807 ft | 266 kts | 8° |
| 2026-04-21 20:37 | 28.60693 | -81.31823 | 6541 ft | 267 kts | 7° |
| 2026-04-21 20:37 | 28.62551 | -81.31654 | 7286 ft | 268 kts | 6° |
| 2026-04-21 20:37 | 28.64411 | -81.31432 | 8002 ft | 269 kts | 8° |
| 2026-04-21 20:38 | 28.66287 | -81.31179 | 8636 ft | 273 kts | 8° |
| 2026-04-21 20:38 | 28.68179 | -81.30924 | 9370 ft | 274 kts | 7° |
| 2026-04-21 20:38 | 28.70095 | -81.30673 | 10002 ft | 280 kts | 6° |
| 2026-04-21 20:38 | 28.72052 | -81.30419 | 10492 ft | 288 kts | 6° |
| 2026-04-21 20:39 | 28.74097 | -81.30151 | 10771 ft | 304 kts | 6° |
| 2026-04-21 20:39 | 28.76264 | -81.29870 | 10993 ft | 322 kts | 6° |
| 2026-04-21 20:39 | 28.78549 | -81.29574 | 11202 ft | 338 kts | 6° |
| 2026-04-21 20:39 | 28.80940 | -81.29261 | 11433 ft | 353 kts | 6° |
| 2026-04-21 20:40 | 28.83408 | -81.28949 | 11873 ft | 359 kts | 4° |
| 2026-04-21 20:40 | 28.85873 | -81.28976 | 12555 ft | 358 kts | 356° |
| 2026-04-21 20:40 | 28.88350 | -81.29185 | 13284 ft | 356 kts | 355° |
| 2026-04-21 20:40 | 28.90834 | -81.29406 | 13847 ft | 360 kts | 355° |
| 2026-04-21 20:41 | 28.93338 | -81.29626 | 14405 ft | 362 kts | 355° |
| 2026-04-21 20:41 | 28.95871 | -81.29847 | 14867 ft | 367 kts | 355° |
| 2026-04-21 20:41 | 28.98439 | -81.30070 | 15316 ft | 372 kts | 354° |
| 2026-04-21 20:41 | 29.01031 | -81.30338 | 15756 ft | 376 kts | 353° |
| 2026-04-21 20:42 | 29.03643 | -81.30625 | 16269 ft | 379 kts | 353° |
| 2026-04-21 20:42 | 29.06285 | -81.30915 | 16688 ft | 384 kts | 353° |
| 2026-04-21 20:42 | 29.08961 | -81.31214 | 17138 ft | 388 kts | 352° |
| 2026-04-21 20:42 | 29.11665 | -81.31472 | 17642 ft | 390 kts | 354° |
| 2026-04-21 20:43 | 29.14386 | -81.31639 | 18146 ft | 392 kts | 355° |
| 2026-04-21 20:43 | 29.17120 | -81.31792 | 18624 ft | 395 kts | 355° |
| 2026-04-21 20:43 | 29.19832 | -81.31950 | 19030 ft | 397 kts | 355° |
| 2026-04-21 20:43 | 29.22633 | -81.32112 | 19468 ft | 399 kts | 354° |
| 2026-04-21 20:44 | 29.25375 | -81.32278 | 19883 ft | 401 kts | 354° |
| 2026-04-21 20:44 | 29.28168 | -81.32446 | 20301 ft | 403 kts | 354° |
| 2026-04-21 20:44 | 29.30979 | -81.32614 | 20711 ft | 405 kts | 354° |
| 2026-04-21 20:44 | 29.33799 | -81.32782 | 21125 ft | 407 kts | 354° |
| 2026-04-21 20:45 | 29.36632 | -81.32956 | 21523 ft | 409 kts | 354° |
| 2026-04-21 20:45 | 29.39481 | -81.33125 | 21924 ft | 411 kts | 354° |
| 2026-04-21 20:45 | 29.42346 | -81.33295 | 22312 ft | 412 kts | 353° |
| 2026-04-21 20:45 | 29.45215 | -81.33467 | 22686 ft | 414 kts | 353° |
| 2026-04-21 20:46 | 29.48100 | -81.33642 | 23084 ft | 416 kts | 353° |
| 2026-04-21 20:46 | 29.51003 | -81.33816 | 23460 ft | 418 kts | 353° |
| 2026-04-21 20:46 | 29.53873 | -81.33985 | 23805 ft | 420 kts | 353° |
| 2026-04-21 20:46 | 29.56796 | -81.34166 | 24125 ft | 421 kts | 353° |
| 2026-04-21 20:47 | 29.59728 | -81.34344 | 24430 ft | 423 kts | 353° |
| 2026-04-21 20:47 | 29.62671 | -81.34526 | 24744 ft | 424 kts | 353° |
| 2026-04-21 20:47 | 29.65621 | -81.34702 | 25056 ft | 425 kts | 353° |
| 2026-04-21 20:47 | 29.68579 | -81.34866 | 25356 ft | 426 kts | 353° |
| 2026-04-21 20:48 | 29.71551 | -81.35041 | 25669 ft | 427 kts | 353° |
| 2026-04-21 20:48 | 29.74524 | -81.35208 | 25967 ft | 428 kts | 353° |
| 2026-04-21 20:48 | 29.77506 | -81.35383 | 26261 ft | 429 kts | 353° |
| 2026-04-21 20:48 | 29.80492 | -81.35566 | 26550 ft | 430 kts | 353° |
| 2026-04-21 20:49 | 29.83482 | -81.35760 | 26837 ft | 431 kts | 353° |
| 2026-04-21 20:49 | 29.86490 | -81.35941 | 27116 ft | 433 kts | 353° |
| 2026-04-21 20:49 | 29.88488 | -81.36057 | 27310 ft | 433 kts | 353° |
| 2026-04-21 20:49 | 29.91504 | -81.36232 | 27593 ft | 434 kts | 353° |
| 2026-04-21 20:50 | 29.95511 | -81.36465 | 27933 ft | 436 kts | 353° |
| 2026-04-21 20:50 | 29.98551 | -81.36640 | 28192 ft | 437 kts | 353° |
| 2026-04-21 20:50 | 30.00607 | -81.36758 | 28357 ft | 438 kts | 353° |
| 2026-04-21 20:50 | 30.03651 | -81.36934 | 28599 ft | 439 kts | 353° |
| 2026-04-21 20:51 | 30.06709 | -81.37106 | 28868 ft | 440 kts | 353° |
| 2026-04-21 20:51 | 30.09763 | -81.37283 | 29188 ft | 438 kts | 352° |
| 2026-04-21 20:51 | 30.12804 | -81.37455 | 29507 ft | 437 kts | 353° |
| 2026-04-21 20:51 | 30.15838 | -81.37623 | 29841 ft | 436 kts | 353° |
| 2026-04-21 20:52 | 30.18832 | -81.37786 | 30162 ft | 435 kts | 352° |
| 2026-04-21 20:52 | 30.21851 | -81.37957 | 30440 ft | 434 kts | 352° |
| 2026-04-21 20:52 | 30.24861 | -81.38138 | 30712 ft | 433 kts | 352° |
| 2026-04-21 20:52 | 30.27866 | -81.38315 | 30981 ft | 431 kts | 352° |
| 2026-04-21 20:53 | 30.30860 | -81.38492 | 31244 ft | 430 kts | 352° |
| 2026-04-21 20:53 | 30.33844 | -81.38663 | 31511 ft | 429 kts | 352° |
| 2026-04-21 20:53 | 30.36816 | -81.38823 | 31782 ft | 427 kts | 352° |
| 2026-04-21 20:53 | 30.39782 | -81.38992 | 32054 ft | 425 kts | 352° |
| 2026-04-21 20:54 | 30.42725 | -81.39164 | 32323 ft | 423 kts | 352° |
| 2026-04-21 20:54 | 30.45666 | -81.39334 | 32597 ft | 422 kts | 352° |
| 2026-04-21 20:54 | 30.48593 | -81.39492 | 32849 ft | 420 kts | 352° |
| 2026-04-21 20:54 | 30.51511 | -81.39643 | 33082 ft | 419 kts | 352° |
| 2026-04-21 20:55 | 30.54390 | -81.39795 | 33329 ft | 417 kts | 352° |
| 2026-04-21 20:55 | 30.57292 | -81.39947 | 33567 ft | 416 kts | 352° |
| 2026-04-21 20:55 | 30.60177 | -81.40099 | 33810 ft | 414 kts | 352° |
| 2026-04-21 20:55 | 30.63053 | -81.40255 | 34067 ft | 413 kts | 352° |
| 2026-04-21 20:56 | 30.65912 | -81.40403 | 34309 ft | 411 kts | 352° |
| 2026-04-21 20:56 | 30.68760 | -81.40549 | 34504 ft | 410 kts | 352° |
| 2026-04-21 20:56 | 30.71609 | -81.40699 | 34643 ft | 410 kts | 352° |
| 2026-04-21 20:56 | 30.74453 | -81.40850 | 34769 ft | 410 kts | 352° |
| 2026-04-21 20:57 | 30.77307 | -81.41000 | 34886 ft | 410 kts | 351° |
| 2026-04-21 20:57 | 30.80162 | -81.41152 | 34991 ft | 411 kts | 351° |
| 2026-04-21 20:57 | 30.83021 | -81.41300 | 35104 ft | 412 kts | 351° |
| 2026-04-21 20:57 | 30.85882 | -81.41452 | 35216 ft | 412 kts | 351° |
| 2026-04-21 20:58 | 30.88745 | -81.41615 | 35330 ft | 412 kts | 351° |
| 2026-04-21 20:58 | 30.91612 | -81.41782 | 35436 ft | 413 kts | 351° |
| 2026-04-21 20:58 | 30.97359 | -81.42100 | 35641 ft | 414 kts | 351° |
| 2026-04-21 20:59 | 31.03122 | -81.42412 | 35842 ft | 415 kts | 351° |
| 2026-04-21 20:59 | 31.06013 | -81.42566 | 35947 ft | 415 kts | 351° |
| 2026-04-21 20:59 | 31.08872 | -81.42720 | 36048 ft | 415 kts | 351° |
| 2026-04-21 21:00 | 31.14662 | -81.43033 | 36230 ft | 416 kts | 351° |
| 2026-04-21 21:00 | 31.20448 | -81.43343 | 36403 ft | 417 kts | 351° |
| 2026-04-21 21:01 | 31.26305 | -81.42804 | 36539 ft | 434 kts | 8° |
| 2026-04-21 21:01 | 31.31952 | -81.39992 | 36665 ft | 446 kts | 18° |
| 2026-04-21 21:02 | 31.37539 | -81.36830 | 36792 ft | 446 kts | 17° |
| 2026-04-21 21:02 | 31.43160 | -81.33754 | 36950 ft | 446 kts | 17° |
| 2026-04-21 21:03 | 31.48793 | -81.30698 | 37069 ft | 447 kts | 17° |
| 2026-04-21 21:03 | 31.54439 | -81.27635 | 37192 ft | 447 kts | 17° |
| 2026-04-21 21:04 | 31.60050 | -81.24611 | 37318 ft | 447 kts | 16° |
| 2026-04-21 21:04 | 31.65730 | -81.21574 | 37344 ft | 448 kts | 17° |
| 2026-04-21 21:05 | 31.71396 | -81.18497 | 37329 ft | 449 kts | 17° |
| 2026-04-21 21:05 | 31.77055 | -81.15401 | 37322 ft | 448 kts | 17° |
| 2026-04-21 21:06 | 31.82704 | -81.12303 | 37314 ft | 448 kts | 17° |
| 2026-04-21 21:06 | 31.88332 | -81.09219 | 37313 ft | 448 kts | 17° |
| 2026-04-21 21:07 | 31.93984 | -81.06120 | 37306 ft | 449 kts | 17° |
| 2026-04-21 21:07 | 31.99631 | -81.03004 | 37308 ft | 447 kts | 17° |
| 2026-04-21 21:08 | 32.05270 | -80.99867 | 37307 ft | 449 kts | 17° |
| 2026-04-21 21:08 | 32.10902 | -80.96702 | 37324 ft | 449 kts | 17° |
| 2026-04-21 21:09 | 32.16544 | -80.93537 | 37358 ft | 448 kts | 17° |
| 2026-04-21 21:09 | 32.22174 | -80.90380 | 37364 ft | 449 kts | 17° |
| 2026-04-21 21:10 | 32.27805 | -80.87221 | 37369 ft | 448 kts | 17° |
| 2026-04-21 21:10 | 32.33452 | -80.84049 | 37369 ft | 448 kts | 18° |
| 2026-04-21 21:11 | 32.39079 | -80.80879 | 37356 ft | 449 kts | 17° |
| 2026-04-21 21:11 | 32.44680 | -80.77726 | 37354 ft | 447 kts | 17° |
| 2026-04-21 21:12 | 32.50307 | -80.74541 | 37354 ft | 449 kts | 18° |
| 2026-04-21 21:12 | 32.55939 | -80.71352 | 37353 ft | 448 kts | 18° |
| 2026-04-21 21:13 | 32.61573 | -80.68163 | 37354 ft | 447 kts | 18° |
| 2026-04-21 21:13 | 32.67201 | -80.64964 | 37354 ft | 449 kts | 18° |
| 2026-04-21 21:14 | 32.72807 | -80.61742 | 37351 ft | 448 kts | 19° |
| 2026-04-21 21:14 | 32.78377 | -80.58375 | 37354 ft | 449 kts | 19° |
| 2026-04-21 21:15 | 32.83955 | -80.55054 | 37356 ft | 449 kts | 19° |
| 2026-04-21 21:15 | 32.89495 | -80.51751 | 37356 ft | 447 kts | 19° |
| 2026-04-21 21:16 | 32.95068 | -80.48429 | 37354 ft | 448 kts | 19° |
| 2026-04-21 21:16 | 33.00616 | -80.45128 | 37339 ft | 448 kts | 19° |
| 2026-04-21 21:17 | 33.06196 | -80.41841 | 37334 ft | 446 kts | 19° |
| 2026-04-21 21:17 | 33.11767 | -80.38537 | 37334 ft | 447 kts | 19° |
| 2026-04-21 21:18 | 33.17321 | -80.35215 | 37334 ft | 447 kts | 19° |
| 2026-04-21 21:18 | 33.22840 | -80.31894 | 37336 ft | 446 kts | 19° |
| 2026-04-21 21:19 | 33.28391 | -80.28565 | 37345 ft | 448 kts | 19° |
| 2026-04-21 21:19 | 33.33939 | -80.25228 | 37352 ft | 446 kts | 19° |
| 2026-04-21 21:20 | 33.39496 | -80.21881 | 37355 ft | 446 kts | 19° |
| 2026-04-21 21:20 | 33.45027 | -80.18541 | 37352 ft | 447 kts | 19° |
| 2026-04-21 21:21 | 33.50578 | -80.15189 | 37354 ft | 445 kts | 19° |
| 2026-04-21 21:21 | 33.56124 | -80.11841 | 37352 ft | 446 kts | 19° |
| 2026-04-21 21:22 | 33.61658 | -80.08478 | 37351 ft | 445 kts | 19° |
| 2026-04-21 21:22 | 33.67195 | -80.05124 | 37355 ft | 445 kts | 19° |
| 2026-04-21 21:23 | 33.72679 | -80.01780 | 37354 ft | 446 kts | 19° |
| 2026-04-21 21:23 | 33.78205 | -79.98401 | 37357 ft | 444 kts | 19° |
| 2026-04-21 21:24 | 33.83735 | -79.95044 | 37357 ft | 445 kts | 19° |
| 2026-04-21 21:24 | 33.89249 | -79.91687 | 37351 ft | 445 kts | 19° |
| 2026-04-21 21:25 | 33.94776 | -79.88316 | 37357 ft | 444 kts | 19° |
| 2026-04-21 21:25 | 34.00284 | -79.84927 | 37368 ft | 445 kts | 19° |
| 2026-04-21 21:26 | 34.05795 | -79.81565 | 37364 ft | 443 kts | 19° |
| 2026-04-21 21:26 | 34.11304 | -79.78191 | 37362 ft | 443 kts | 19° |
| 2026-04-21 21:27 | 34.16789 | -79.74788 | 37364 ft | 443 kts | 19° |
| 2026-04-21 21:27 | 34.22230 | -79.71358 | 37363 ft | 442 kts | 20° |
| 2026-04-21 21:28 | 34.27696 | -79.67967 | 37364 ft | 441 kts | 19° |
| 2026-04-21 21:29 | 34.35916 | -79.62978 | 37370 ft | 440 kts | 19° |
| 2026-04-21 21:29 | 34.41372 | -79.59614 | 37365 ft | 440 kts | 19° |
| 2026-04-21 21:30 | 34.46817 | -79.56232 | 37363 ft | 439 kts | 19° |
| 2026-04-21 21:30 | 34.52253 | -79.52871 | 37358 ft | 439 kts | 19° |
| 2026-04-21 21:31 | 34.57655 | -79.49381 | 37360 ft | 440 kts | 21° |
| 2026-04-21 21:31 | 34.63010 | -79.45791 | 37362 ft | 440 kts | 21° |
| 2026-04-21 21:32 | 34.68329 | -79.42226 | 37368 ft | 439 kts | 21° |
| 2026-04-21 21:32 | 34.73711 | -79.38601 | 37373 ft | 440 kts | 21° |
| 2026-04-21 21:33 | 34.79041 | -79.34968 | 37362 ft | 438 kts | 21° |
| 2026-04-21 21:33 | 34.84342 | -79.31367 | 37366 ft | 439 kts | 21° |
| 2026-04-21 21:34 | 34.89668 | -79.27764 | 37368 ft | 438 kts | 21° |
| 2026-04-21 21:34 | 34.95001 | -79.24131 | 37363 ft | 438 kts | 21° |
| 2026-04-21 21:35 | 35.00316 | -79.20517 | 37358 ft | 438 kts | 21° |
| 2026-04-21 21:35 | 35.05622 | -79.16890 | 37348 ft | 437 kts | 21° |
| 2026-04-21 21:36 | 35.10935 | -79.13270 | 37346 ft | 437 kts | 21° |
| 2026-04-21 21:36 | 35.16243 | -79.09651 | 37343 ft | 436 kts | 21° |
| 2026-04-21 21:37 | 35.21534 | -79.06021 | 37322 ft | 436 kts | 21° |
| 2026-04-21 21:37 | 35.25941 | -79.03000 | 37323 ft | 436 kts | 21° |
| 2026-04-21 21:38 | 35.32088 | -78.98774 | 37331 ft | 436 kts | 21° |
| 2026-04-21 21:38 | 35.36522 | -78.95722 | 37366 ft | 436 kts | 21° |
| 2026-04-21 21:39 | 35.41762 | -78.92111 | 37371 ft | 436 kts | 21° |
| 2026-04-21 21:39 | 35.47048 | -78.88465 | 37372 ft | 435 kts | 21° |
| 2026-04-21 21:40 | 35.52320 | -78.84807 | 37370 ft | 435 kts | 21° |
| 2026-04-21 21:40 | 35.57589 | -78.81158 | 37370 ft | 434 kts | 21° |
| 2026-04-21 21:41 | 35.62860 | -78.77506 | 37358 ft | 434 kts | 21° |
| 2026-04-21 21:41 | 35.68120 | -78.73867 | 37353 ft | 434 kts | 21° |
| 2026-04-21 21:42 | 35.73368 | -78.70214 | 37350 ft | 433 kts | 21° |
| 2026-04-21 21:42 | 35.78625 | -78.66557 | 37352 ft | 435 kts | 21° |
| 2026-04-21 21:43 | 35.83873 | -78.62877 | 37355 ft | 434 kts | 21° |
| 2026-04-21 21:43 | 35.89127 | -78.59200 | 37358 ft | 433 kts | 21° |
| 2026-04-21 21:44 | 35.94381 | -78.55542 | 37357 ft | 434 kts | 21° |
| 2026-04-21 21:44 | 35.99628 | -78.51862 | 37363 ft | 434 kts | 21° |
| 2026-04-21 21:45 | 36.04880 | -78.48173 | 37365 ft | 433 kts | 21° |
| 2026-04-21 21:45 | 36.10087 | -78.44502 | 37366 ft | 435 kts | 21° |
| 2026-04-21 21:46 | 36.15341 | -78.40817 | 37365 ft | 433 kts | 21° |
| 2026-04-21 21:46 | 36.20593 | -78.37119 | 37362 ft | 434 kts | 22° |
| 2026-04-21 21:47 | 36.25840 | -78.33397 | 37341 ft | 434 kts | 21° |
| 2026-04-21 21:47 | 36.31090 | -78.29690 | 37349 ft | 433 kts | 22° |
| 2026-04-21 21:48 | 36.36298 | -78.25992 | 37355 ft | 435 kts | 23° |
| 2026-04-21 21:48 | 36.41068 | -78.21183 | 37348 ft | 450 kts | 36° |
| 2026-04-21 21:49 | 36.45583 | -78.15802 | 37363 ft | 448 kts | 36° |
| 2026-04-21 21:49 | 36.50113 | -78.10446 | 37364 ft | 449 kts | 36° |
| 2026-04-21 21:50 | 36.54644 | -78.05113 | 37377 ft | 448 kts | 35° |
| 2026-04-21 21:50 | 36.59152 | -77.99795 | 37382 ft | 448 kts | 36° |
| 2026-04-21 21:51 | 36.63675 | -77.94461 | 37385 ft | 448 kts | 36° |
| 2026-04-21 21:51 | 36.68199 | -77.89107 | 37354 ft | 448 kts | 36° |
| 2026-04-21 21:52 | 36.72702 | -77.83755 | 37350 ft | 448 kts | 36° |
| 2026-04-21 21:52 | 36.77216 | -77.78390 | 37345 ft | 448 kts | 36° |
| 2026-04-21 21:53 | 36.81734 | -77.73025 | 37340 ft | 448 kts | 36° |
| 2026-04-21 21:53 | 36.86257 | -77.67651 | 37341 ft | 449 kts | 36° |
| 2026-04-21 21:54 | 36.90765 | -77.62254 | 37350 ft | 449 kts | 37° |
| 2026-04-21 21:54 | 36.95285 | -77.56863 | 37348 ft | 449 kts | 37° |
| 2026-04-21 21:55 | 36.99729 | -77.51550 | 37353 ft | 449 kts | 37° |
| 2026-04-21 21:55 | 37.04241 | -77.46147 | 37352 ft | 450 kts | 37° |
| 2026-04-21 21:56 | 37.08801 | -77.40793 | 37339 ft | 445 kts | 32° |
| 2026-04-21 21:56 | 37.11316 | -77.38698 | 37341 ft | 436 kts | 21° |
| 2026-04-21 21:56 | 37.14094 | -77.37248 | 37359 ft | 430 kts | 13° |
| 2026-04-21 21:57 | 37.19765 | -77.34868 | 37341 ft | 428 kts | 12° |
| 2026-04-21 21:57 | 37.25434 | -77.32451 | 37350 ft | 430 kts | 13° |
| 2026-04-21 21:58 | 37.31085 | -77.29999 | 37333 ft | 430 kts | 13° |
| 2026-04-21 21:58 | 37.36735 | -77.27537 | 37323 ft | 430 kts | 13° |
| 2026-04-21 21:59 | 37.42397 | -77.25075 | 37310 ft | 430 kts | 13° |
| 2026-04-21 21:59 | 37.47618 | -77.22795 | 37304 ft | 430 kts | 13° |
| 2026-04-21 22:00 | 37.53289 | -77.20315 | 37306 ft | 431 kts | 13° |
| 2026-04-21 22:00 | 37.58911 | -77.17847 | 37320 ft | 431 kts | 13° |
| 2026-04-21 22:01 | 37.64504 | -77.15405 | 37324 ft | 433 kts | 13° |
| 2026-04-21 22:01 | 37.69942 | -77.12809 | 37333 ft | 437 kts | 20° |
| 2026-04-21 22:02 | 37.75321 | -77.09123 | 37329 ft | 441 kts | 23° |
| 2026-04-21 22:02 | 37.80013 | -77.05837 | 37322 ft | 440 kts | 23° |
| 2026-04-21 22:03 | 37.85336 | -77.02143 | 37309 ft | 440 kts | 22° |
| 2026-04-21 22:03 | 37.90707 | -76.98420 | 37325 ft | 440 kts | 23° |
| 2026-04-21 22:04 | 37.96047 | -76.94714 | 37321 ft | 440 kts | 22° |
| 2026-04-21 22:04 | 38.01420 | -76.90977 | 37322 ft | 442 kts | 23° |
| 2026-04-21 22:05 | 38.06812 | -76.87221 | 37322 ft | 441 kts | 23° |
| 2026-04-21 22:05 | 38.12201 | -76.83459 | 37329 ft | 442 kts | 23° |
| 2026-04-21 22:06 | 38.17571 | -76.79656 | 37325 ft | 441 kts | 23° |
| 2026-04-21 22:06 | 38.22908 | -76.75873 | 37333 ft | 442 kts | 23° |
| 2026-04-21 22:07 | 38.27934 | -76.71196 | 37326 ft | 452 kts | 34° |
| 2026-04-21 22:07 | 38.32714 | -76.66019 | 37331 ft | 451 kts | 34° |
| 2026-04-21 22:08 | 38.37491 | -76.60829 | 37322 ft | 451 kts | 34° |
| 2026-04-21 22:08 | 38.42236 | -76.55682 | 37329 ft | 451 kts | 34° |
| 2026-04-21 22:09 | 38.46880 | -76.50695 | 37313 ft | 451 kts | 34° |
| 2026-04-21 22:09 | 38.51687 | -76.45555 | 37327 ft | 452 kts | 34° |
| 2026-04-21 22:10 | 38.56495 | -76.40378 | 37329 ft | 450 kts | 34° |
| 2026-04-21 22:10 | 38.60321 | -76.36258 | 37341 ft | 451 kts | 34° |
| 2026-04-21 22:11 | 38.64854 | -76.31368 | 37322 ft | 451 kts | 34° |
| 2026-04-21 22:11 | 38.69656 | -76.26170 | 37325 ft | 452 kts | 34° |
| 2026-04-21 22:12 | 38.74010 | -76.21460 | 37318 ft | 451 kts | 34° |
| 2026-04-21 22:12 | 38.78104 | -76.17020 | 37324 ft | 452 kts | 34° |
| 2026-04-21 22:13 | 38.82884 | -76.11796 | 37314 ft | 451 kts | 34° |
| 2026-04-21 22:13 | 38.87652 | -76.06534 | 37317 ft | 451 kts | 34° |
| 2026-04-21 22:14 | 38.92352 | -76.01430 | 37307 ft | 451 kts | 33° |
| 2026-04-21 22:14 | 38.97121 | -75.96159 | 37321 ft | 453 kts | 36° |
| 2026-04-21 22:15 | 39.01774 | -75.90666 | 37325 ft | 454 kts | 36° |
| 2026-04-21 22:15 | 39.06362 | -75.85183 | 37324 ft | 454 kts | 37° |
| 2026-04-21 22:16 | 39.11000 | -75.79655 | 37317 ft | 454 kts | 36° |
| 2026-04-21 22:16 | 39.15636 | -75.74111 | 37319 ft | 455 kts | 37° |
| 2026-04-21 22:17 | 39.20263 | -75.68543 | 37308 ft | 455 kts | 37° |
| 2026-04-21 22:17 | 39.24885 | -75.62962 | 37313 ft | 456 kts | 37° |
| 2026-04-21 22:18 | 39.29498 | -75.57408 | 37314 ft | 456 kts | 37° |
| 2026-04-21 22:18 | 39.34140 | -75.51842 | 37320 ft | 456 kts | 36° |
| 2026-04-21 22:19 | 39.38792 | -75.46276 | 37324 ft | 456 kts | 37° |
| 2026-04-21 22:19 | 39.43414 | -75.40694 | 37329 ft | 457 kts | 37° |
| 2026-04-21 22:20 | 39.48049 | -75.35071 | 37330 ft | 457 kts | 37° |
| 2026-04-21 22:20 | 39.52678 | -75.29427 | 37333 ft | 457 kts | 37° |
| 2026-04-21 22:21 | 39.57332 | -75.23798 | 37343 ft | 457 kts | 37° |
| 2026-04-21 22:21 | 39.61968 | -75.18151 | 37327 ft | 458 kts | 37° |
| 2026-04-21 22:22 | 39.66580 | -75.12507 | 37315 ft | 458 kts | 37° |
| 2026-04-21 22:22 | 39.70954 | -75.07489 | 37306 ft | 456 kts | 34° |
| 2026-04-21 22:23 | 39.75757 | -75.02096 | 37313 ft | 456 kts | 34° |
| 2026-04-21 22:23 | 39.80570 | -74.96697 | 37311 ft | 457 kts | 35° |
| 2026-04-21 22:24 | 39.84557 | -74.92178 | 37306 ft | 457 kts | 35° |
| 2026-04-21 22:24 | 39.89358 | -74.86744 | 37302 ft | 456 kts | 34° |
| 2026-04-21 22:25 | 39.94468 | -74.81912 | 37301 ft | 453 kts | 29° |
| 2026-04-21 22:25 | 39.99608 | -74.77176 | 37302 ft | 453 kts | 29° |
| 2026-04-21 22:26 | 40.04590 | -74.72079 | 37303 ft | 462 kts | 40° |
| 2026-04-21 22:26 | 40.08888 | -74.65915 | 37302 ft | 464 kts | 42° |
| 2026-04-21 22:27 | 40.13200 | -74.59653 | 37034 ft | 463 kts | 42° |
| 2026-04-21 22:27 | 40.15363 | -74.56537 | 36722 ft | 461 kts | 42° |
| 2026-04-21 22:27 | 40.17492 | -74.53467 | 36451 ft | 462 kts | 42° |
| 2026-04-21 22:27 | 40.19653 | -74.50365 | 36193 ft | 460 kts | 40° |
| 2026-04-21 22:28 | 40.22012 | -74.47580 | 35948 ft | 454 kts | 33° |
| 2026-04-21 22:28 | 40.24460 | -74.44976 | 35726 ft | 454 kts | 33° |
| 2026-04-21 22:28 | 40.26917 | -74.42364 | 35493 ft | 454 kts | 33° |
| 2026-04-21 22:28 | 40.29374 | -74.39755 | 35259 ft | 454 kts | 33° |
| 2026-04-21 22:29 | 40.31803 | -74.37160 | 35019 ft | 454 kts | 33° |
| 2026-04-21 22:29 | 40.34247 | -74.34531 | 34724 ft | 454 kts | 33° |
| 2026-04-21 22:29 | 40.36690 | -74.31920 | 34396 ft | 453 kts | 33° |
| 2026-04-21 22:29 | 40.39139 | -74.29301 | 34038 ft | 454 kts | 33° |
| 2026-04-21 22:30 | 40.41578 | -74.26676 | 33649 ft | 454 kts | 33° |
| 2026-04-21 22:30 | 40.44019 | -74.24044 | 33271 ft | 455 kts | 33° |
| 2026-04-21 22:30 | 40.46474 | -74.21413 | 32881 ft | 455 kts | 33° |
| 2026-04-21 22:30 | 40.48931 | -74.18767 | 32502 ft | 456 kts | 33° |
| 2026-04-21 22:31 | 40.51381 | -74.16113 | 32131 ft | 457 kts | 34° |
| 2026-04-21 22:31 | 40.53451 | -74.13550 | 31785 ft | 465 kts | 43° |
| 2026-04-21 22:31 | 40.55323 | -74.10109 | 31398 ft | 475 kts | 56° |
| 2026-04-21 22:31 | 40.56635 | -74.06086 | 31043 ft | 484 kts | 67° |
| 2026-04-21 22:32 | 40.57626 | -74.01851 | 30704 ft | 486 kts | 69° |
| 2026-04-21 22:32 | 40.58589 | -73.97571 | 30436 ft | 487 kts | 69° |
| 2026-04-21 22:32 | 40.59560 | -73.93307 | 29756 ft | 486 kts | 69° |
| 2026-04-21 22:32 | 40.60535 | -73.89058 | 29008 ft | 485 kts | 69° |
| 2026-04-21 22:33 | 40.61518 | -73.84805 | 28291 ft | 483 kts | 69° |
| 2026-04-21 22:33 | 40.62495 | -73.80594 | 27620 ft | 481 kts | 69° |
| 2026-04-21 22:33 | 40.63523 | -73.76406 | 26928 ft | 476 kts | 64° |
| 2026-04-21 22:33 | 40.64830 | -73.72438 | 26272 ft | 471 kts | 60° |
| 2026-04-21 22:34 | 40.66190 | -73.68528 | 25639 ft | 468 kts | 60° |
| 2026-04-21 22:34 | 40.67538 | -73.64638 | 25020 ft | 465 kts | 61° |
| 2026-04-21 22:34 | 40.68706 | -73.61235 | 24445 ft | 462 kts | 61° |
| 2026-04-21 22:34 | 40.70019 | -73.57390 | 23785 ft | 458 kts | 61° |
| 2026-04-21 22:35 | 40.71315 | -73.53584 | 23045 ft | 453 kts | 61° |
| 2026-04-21 22:35 | 40.72598 | -73.49816 | 22391 ft | 447 kts | 61° |
| 2026-04-21 22:35 | 40.73622 | -73.46794 | 21886 ft | 443 kts | 61° |
| 2026-04-21 22:35 | 40.74687 | -73.43649 | 21334 ft | 436 kts | 61° |
| 2026-04-21 22:36 | 40.77073 | -73.36593 | 20303 ft | 412 kts | 61° |
| 2026-04-21 22:36 | 40.78245 | -73.33140 | 19766 ft | 403 kts | 60° |
| 2026-04-21 22:36 | 40.79673 | -73.30031 | 19257 ft | 392 kts | 46° |
| 2026-04-21 22:37 | 40.81567 | -73.27460 | 18884 ft | 390 kts | 36° |
| 2026-04-21 22:37 | 40.83589 | -73.25156 | 18605 ft | 388 kts | 35° |
| 2026-04-21 22:37 | 40.85635 | -73.22831 | 18317 ft | 387 kts | 36° |
| 2026-04-21 22:37 | 40.87668 | -73.20491 | 18025 ft | 386 kts | 36° |
| 2026-04-21 22:38 | 40.89688 | -73.18153 | 17747 ft | 385 kts | 36° |
| 2026-04-21 22:38 | 40.91698 | -73.15830 | 17481 ft | 384 kts | 36° |
| 2026-04-21 22:38 | 40.93702 | -73.13492 | 17208 ft | 384 kts | 36° |
| 2026-04-21 22:38 | 40.95702 | -73.11159 | 16937 ft | 382 kts | 36° |
| 2026-04-21 22:39 | 40.97695 | -73.08841 | 16676 ft | 381 kts | 36° |
| 2026-04-21 22:39 | 40.99666 | -73.06546 | 16415 ft | 380 kts | 36° |
| 2026-04-21 22:39 | 41.01651 | -73.04227 | 16147 ft | 380 kts | 37° |
| 2026-04-21 22:39 | 41.03625 | -73.01910 | 15889 ft | 379 kts | 37° |
| 2026-04-21 22:40 | 41.05596 | -72.99598 | 15627 ft | 378 kts | 36° |
| 2026-04-21 22:40 | 41.07567 | -72.97297 | 15382 ft | 377 kts | 37° |
| 2026-04-21 22:40 | 41.09530 | -72.95001 | 15125 ft | 376 kts | 37° |
| 2026-04-21 22:40 | 41.11484 | -72.92704 | 14887 ft | 375 kts | 37° |
| 2026-04-21 22:41 | 41.13431 | -72.90410 | 14639 ft | 374 kts | 37° |
| 2026-04-21 22:41 | 41.15375 | -72.88115 | 14396 ft | 373 kts | 37° |
| 2026-04-21 22:41 | 41.17317 | -72.85833 | 14145 ft | 372 kts | 37° |
| 2026-04-21 22:41 | 41.19228 | -72.83587 | 13798 ft | 370 kts | 37° |
| 2026-04-21 22:42 | 41.21153 | -72.81326 | 13349 ft | 369 kts | 37° |
| 2026-04-21 22:42 | 41.23071 | -72.79058 | 12861 ft | 369 kts | 37° |
| 2026-04-21 22:42 | 41.25101 | -72.77062 | 12453 ft | 356 kts | 24° |
| 2026-04-21 22:42 | 41.27374 | -72.75944 | 12154 ft | 344 kts | 7° |
| 2026-04-21 22:43 | 41.29729 | -72.75566 | 11885 ft | 339 kts | 360° |
| 2026-04-21 22:43 | 41.32074 | -72.75356 | 11623 ft | 337 kts | 360° |
| 2026-04-21 22:43 | 41.34402 | -72.75139 | 11380 ft | 333 kts | 0° |
| 2026-04-21 22:43 | 41.36677 | -72.74902 | 11187 ft | 322 kts | 0° |
| 2026-04-21 22:44 | 41.38864 | -72.74665 | 11030 ft | 310 kts | 0° |
| 2026-04-21 22:44 | 41.40974 | -72.74432 | 10916 ft | 298 kts | 0° |
| 2026-04-21 22:44 | 41.42999 | -72.74208 | 10636 ft | 294 kts | 1° |
| 2026-04-21 22:44 | 41.45054 | -72.73978 | 10294 ft | 291 kts | 1° |
| 2026-04-21 22:45 | 41.47038 | -72.73757 | 9934 ft | 289 kts | 1° |
| 2026-04-21 22:45 | 41.49036 | -72.73534 | 9554 ft | 287 kts | 1° |
| 2026-04-21 22:45 | 41.51017 | -72.73313 | 9167 ft | 285 kts | 1° |
| 2026-04-21 22:45 | 41.52993 | -72.73091 | 8783 ft | 282 kts | 2° |
| 2026-04-21 22:46 | 41.54936 | -72.72869 | 8404 ft | 278 kts | 2° |
| 2026-04-21 22:46 | 41.56851 | -72.72649 | 8009 ft | 273 kts | 2° |
| 2026-04-21 22:46 | 41.58491 | -72.72460 | 7665 ft | 267 kts | 2° |
| 2026-04-21 22:46 | 41.60326 | -72.72249 | 7275 ft | 262 kts | 2° |
| 2026-04-21 22:47 | 41.62123 | -72.72049 | 6899 ft | 258 kts | 2° |
| 2026-04-21 22:47 | 41.63915 | -72.71846 | 6558 ft | 258 kts | 2° |
| 2026-04-21 22:47 | 41.65671 | -72.71646 | 6213 ft | 254 kts | 2° |
| 2026-04-21 22:47 | 41.67440 | -72.71445 | 5896 ft | 256 kts | 2° |
| 2026-04-21 22:48 | 41.69206 | -72.71244 | 5579 ft | 253 kts | 2° |
| 2026-04-21 22:48 | 41.70374 | -72.71114 | 5365 ft | 252 kts | 2° |
| 2026-04-21 22:48 | 41.72126 | -72.70917 | 5074 ft | 252 kts | 2° |
| 2026-04-21 22:48 | 41.73871 | -72.70719 | 4992 ft | 253 kts | 2° |
| 2026-04-21 22:49 | 41.75622 | -72.70523 | 4993 ft | 252 kts | 2° |
| 2026-04-21 22:49 | 41.77353 | -72.70138 | 4993 ft | 255 kts | 18° |
| 2026-04-21 22:49 | 41.78886 | -72.68920 | 4849 ft | 259 kts | 37° |
| 2026-04-21 22:49 | 41.80142 | -72.67200 | 4610 ft | 257 kts | 45° |
| 2026-04-21 22:50 | 41.81299 | -72.65399 | 4325 ft | 253 kts | 46° |
| 2026-04-21 22:50 | 41.82432 | -72.63609 | 3991 ft | 251 kts | 46° |
| 2026-04-21 22:50 | 41.83553 | -72.61828 | 3656 ft | 249 kts | 46° |
| 2026-04-21 22:50 | 41.84669 | -72.60058 | 3300 ft | 248 kts | 46° |
| 2026-04-21 22:51 | 41.85853 | -72.58407 | 3016 ft | 243 kts | 42° |
| 2026-04-21 22:51 | 41.87028 | -72.56838 | 2940 ft | 232 kts | 41° |
| 2026-04-21 22:51 | 41.88153 | -72.55341 | 2812 ft | 224 kts | 41° |
| 2026-04-21 22:51 | 41.89231 | -72.53897 | 2650 ft | 214 kts | 41° |
| 2026-04-21 22:52 | 41.90271 | -72.52494 | 2499 ft | 211 kts | 41° |
| 2026-04-21 22:52 | 41.91304 | -72.51098 | 2360 ft | 212 kts | 41° |
| 2026-04-21 22:52 | 41.92319 | -72.49724 | 2225 ft | 211 kts | 41° |
| 2026-04-21 22:52 | 41.93404 | -72.48417 | 2072 ft | 206 kts | 25° |
| 2026-04-21 22:53 | 41.94740 | -72.47981 | 1978 ft | 192 kts | 353° |
| 2026-04-21 22:53 | 41.95941 | -72.48469 | 1981 ft | 175 kts | 333° |
| 2026-04-21 22:53 | 41.97040 | -72.49221 | 2054 ft | 180 kts | 332° |
| 2026-04-21 22:53 | 41.98146 | -72.49990 | 2035 ft | 177 kts | 332° |
| 2026-04-21 22:54 | 41.99240 | -72.50755 | 2020 ft | 177 kts | 331° |
| 2026-04-21 22:54 | 42.00339 | -72.51525 | 1998 ft | 180 kts | 331° |
| 2026-04-21 22:54 | 42.01310 | -72.52542 | 1977 ft | 178 kts | 309° |
| 2026-04-21 22:54 | 42.01756 | -72.54087 | 1991 ft | 181 kts | 282° |
| 2026-04-21 22:55 | 42.01886 | -72.55772 | 2001 ft | 182 kts | 276° |
| 2026-04-21 22:55 | 42.01937 | -72.57485 | 1998 ft | 186 kts | 269° |
| 2026-04-21 22:55 | 42.01390 | -72.59064 | 1982 ft | 192 kts | 234° |
| 2026-04-21 22:55 | 42.00461 | -72.60258 | 1813 ft | 176 kts | 226° |
| 2026-04-21 22:56 | 41.99588 | -72.61294 | 1537 ft | 160 kts | 227° |
| 2026-04-21 22:56 | 41.98817 | -72.62291 | 1275 ft | 146 kts | 230° |
| 2026-04-21 22:56 | 41.98121 | -72.63206 | 988 ft | 138 kts | 227° |
| 2026-04-21 22:56 | 41.97474 | -72.64118 | 745 ft | 132 kts | 223° |
| 2026-04-21 22:57 | 41.96805 | -72.64960 | 573 ft | 134 kts | 220° |
| 2026-04-21 22:57 | 41.96140 | -72.65834 | 485 ft | 135 kts | 221° |
| 2026-04-21 22:57 | 41.95465 | -72.66705 | 337 ft | 133 kts | 220° |
| 2026-04-21 22:57 | 41.94801 | -72.67567 | 223 ft | 130 kts | 220° |
| 2026-04-21 22:58 | 41.94277 | -72.68251 | 223 ft | 66 kts | 224° |
| 2026-04-21 22:58 | 41.94068 | -72.68523 | 216 ft | 16 kts | 213° |
| 2026-04-21 22:58 | 41.93975 | -72.68507 | 217 ft | 8 kts | 138° |
| 2026-04-21 22:58 | 41.93918 | -72.68474 | 218 ft | 11 kts | 189° |
| 2026-04-21 22:59 | 41.93847 | -72.68542 | 211 ft | 14 kts | 220° |
| 2026-04-21 22:59 | 41.93763 | -72.68645 | 215 ft | 18 kts | 223° |
| 2026-04-21 22:59 | 41.93645 | -72.68703 | 213 ft | 21 kts | 148° |